Observation data for Goodlett on 08/14/2020      Previous  Date  Next       Current Mesonet Observations  Soil Data  Daily Summary Page  Observations in Plain Language
KGDS 140500Z 19015KT 33/11 A2981 RMK A01 T03300112  RH  027%=      5-min Rain = 0
KGDS 140505Z 19015KT 34/11 A2981 RMK A01 T03350111  RH  026%=      5-min Rain = 0
KGDS 140510Z 19015KT 34/11 A2981 RMK A01 T03350111  RH  026%=      5-min Rain = 0
KGDS 140515Z 19015KT 34/11 A2981 RMK A01 T03360110  RH  026%=      5-min Rain = 0
KGDS 140520Z 19014KT 34/11 A2981 RMK A01 T03390109  RH  026%=      5-min Rain = 0
KGDS 140525Z 20013KT 34/11 A2981 RMK A01 T03390109  RH  026%=      5-min Rain = 0
KGDS 140530Z 20013KT 34/11 A2982 RMK A01 T03350108  RH  026%=      5-min Rain = 0
KGDS 140535Z 20013KT 34/11 A2982 RMK A01 T03350106  RH  026%=      5-min Rain = 0
KGDS 140540Z 20013KT 34/11 A2982 RMK A01 T03360106  RH  025%=      5-min Rain = 0
KGDS 140545Z 21011KT 34/11 A2982 RMK A01 T03350105  RH  025%=      5-min Rain = 0
KGDS 140550Z 23010KT 33/11 A2982 RMK A01 T03290107  RH  027%=      5-min Rain = 0
KGDS 140555Z 23009KT 32/11 A2983 RMK A01 T03210108  RH  028%=      5-min Rain = 0
KGDS 140600Z 22012KT 32/11 A2983 RMK A01 T03230107  RH  028%=      5-min Rain = 0
KGDS 140605Z 23010KT 32/11 A2983 RMK A01 T03230107  RH  028%=      5-min Rain = 0
KGDS 140610Z 24008KT 32/11 A2983 RMK A01 T03180108  RH  029%=      5-min Rain = 0
KGDS 140615Z 25007KT 31/11 A2983 RMK A01 T03130114  RH  031%=      5-min Rain = 0
KGDS 140620Z 26005KT 31/12 A2983 RMK A01 T03080121  RH  033%=      5-min Rain = 0
KGDS 140625Z 28005KT 30/14 A2983 RMK A01 T03010136  RH  038%=      5-min Rain = 0
KGDS 140630Z 28005KT 30/15 A2983 RMK A01 T02960147  RH  042%=      5-min Rain = 0
KGDS 140635Z 29004KT 29/15 A2983 RMK A01 T02940152  RH  044%=      5-min Rain = 0
KGDS 140640Z 24004KT 29/15 A2983 RMK A01 T02890150  RH  045%=      5-min Rain = 0
KGDS 140645Z 26004KT 29/16 A2983 RMK A01 T02870155  RH  047%=      5-min Rain = 0
KGDS 140650Z 26004KT 28/16 A2983 RMK A01 T02840158  RH  049%=      5-min Rain = 0
KGDS 140655Z 23004KT 28/15 A2983 RMK A01 T02790154  RH  049%=      5-min Rain = 0
KGDS 140700Z 25004KT 28/16 A2983 RMK A01 T02790161  RH  051%=      5-min Rain = 0
KGDS 140705Z 23004KT 28/16 A2982 RMK A01 T02750157  RH  051%=      5-min Rain = 0
KGDS 140710Z 19004KT 27/14 A2982 RMK A01 T02700142  RH  047%=      5-min Rain = 0
KGDS 140715Z 21005KT 27/15 A2982 RMK A01 T02710149  RH  049%=      5-min Rain = 0
KGDS 140720Z 21005KT 27/14 A2982 RMK A01 T02670142  RH  048%=      5-min Rain = 0
KGDS 140725Z 21005KT 27/14 A2982 RMK A01 T02650143  RH  049%=      5-min Rain = 0
KGDS 140730Z 24004KT 26/14 A2982 RMK A01 T02620144  RH  050%=      5-min Rain = 0
KGDS 140735Z 26005KT 26/15 A2982 RMK A01 T02600154  RH  054%=      5-min Rain = 0
KGDS 140740Z 26007KT 26/16 A2982 RMK A01 T02590164  RH  058%=      5-min Rain = 0
KGDS 140745Z 27008KT 26/17 A2982 RMK A01 T02620173  RH  061%=      5-min Rain = 0
KGDS 140750Z 26007KT 27/18 A2982 RMK A01 T02660175  RH  060%=      5-min Rain = 0
KGDS 140755Z 26006KT 27/18 A2982 RMK A01 T02680176  RH  060%=      5-min Rain = 0
KGDS 140800Z 26007KT 27/18 A2983 RMK A01 T02670176  RH  060%=      5-min Rain = 0
KGDS 140805Z 25008KT 27/18 A2983 RMK A01 T02670176  RH  060%=      5-min Rain = 0
KGDS 140810Z 25007KT 27/17 A2983 RMK A01 T02670174  RH  060%=      5-min Rain = 0
KGDS 140815Z 24008KT 27/17 A2983 RMK A01 T02660169  RH  058%=      5-min Rain = 0
KGDS 140820Z 25008KT 27/17 A2984 RMK A01 T02650168  RH  058%=      5-min Rain = 0
KGDS 140825Z 26007KT 26/17 A2984 RMK A01 T02640169  RH  059%=      5-min Rain = 0
KGDS 140830Z 27008KT 26/17 A2984 RMK A01 T02640173  RH  060%=      5-min Rain = 0
KGDS 140835Z 28007KT 27/18 A2984 RMK A01 T02650177  RH  062%=      5-min Rain = 0
KGDS 140840Z 28007KT 27/18 A2984 RMK A01 T02650181  RH  063%=      5-min Rain = 0
KGDS 140845Z 28008KT 27/19 A2983 RMK A01 T02660188  RH  066%=      5-min Rain = 0
KGDS 140850Z 28008KT 27/19 A2984 RMK A01 T02680193  RH  067%=      5-min Rain = 0
KGDS 140855Z 28008KT 27/20 A2984 RMK A01 T02690195  RH  068%=      5-min Rain = 0
KGDS 140900Z 27007KT 27/20 A2984 RMK A01 T02690197  RH  068%=      5-min Rain = 0
KGDS 140905Z 27007KT 27/20 A2984 RMK A01 T02690197  RH  069%=      5-min Rain = 0
KGDS 140910Z 27007KT 27/20 A2984 RMK A01 T02670196  RH  069%=      5-min Rain = 0
KGDS 140915Z 26007KT 27/20 A2984 RMK A01 T02660197  RH  070%=      5-min Rain = 0
KGDS 140920Z 26007KT 26/20 A2984 RMK A01 T02630196  RH  070%=      5-min Rain = 0
KGDS 140925Z 26007KT 26/19 A2984 RMK A01 T02600194  RH  071%=      5-min Rain = 0
KGDS 140930Z 25007KT 26/19 A2984 RMK A01 T02590194  RH  071%=      5-min Rain = 0
KGDS 140935Z 26007KT 26/19 A2984 RMK A01 T02580194  RH  072%=      5-min Rain = 0
KGDS 140940Z 27006KT 26/19 A2984 RMK A01 T02570194  RH  072%=      5-min Rain = 0
KGDS 140945Z 27007KT 26/20 A2984 RMK A01 T02570195  RH  073%=      5-min Rain = 0
KGDS 140950Z 28007KT 26/20 A2984 RMK A01 T02580198  RH  074%=      5-min Rain = 0
KGDS 140955Z 28008KT 26/20 A2984 RMK A01 T02620202  RH  074%=      5-min Rain = 0
KGDS 141000Z 29007KT 26/20 A2984 RMK A01 T02630203  RH  074%=      5-min Rain = 0
KGDS 141005Z 28006KT 26/20 A2984 RMK A01 T02620203  RH  074%=      5-min Rain = 0
KGDS 141010Z 28006KT 26/20 A2984 RMK A01 T02610203  RH  075%=      5-min Rain = 0
KGDS 141015Z 28006KT 26/20 A2984 RMK A01 T02590203  RH  076%=      5-min Rain = 0
KGDS 141020Z 29007KT 26/20 A2984 RMK A01 T02580203  RH  076%=      5-min Rain = 0
KGDS 141025Z 29006KT 26/20 A2984 RMK A01 T02580204  RH  076%=      5-min Rain = 0
KGDS 141030Z 29006KT 26/20 A2984 RMK A01 T02580204  RH  077%=      5-min Rain = 0
KGDS 141035Z 28005KT 26/20 A2985 RMK A01 T02560203  RH  077%=      5-min Rain = 0
KGDS 141040Z 28004KT 25/20 A2985 RMK A01 T02540202  RH  078%=      5-min Rain = 0
KGDS 141045Z 28005KT 25/20 A2985 RMK A01 T02530202  RH  078%=      5-min Rain = 0
KGDS 141050Z 26004KT 25/20 A2985 RMK A01 T02500197  RH  077%=      5-min Rain = 0
KGDS 141055Z 26004KT 25/20 A2985 RMK A01 T02450195  RH  078%=      5-min Rain = 0
KGDS 141100Z 26004KT 24/20 A2985 RMK A01 T02440197  RH  079%=      5-min Rain = 0
KGDS 141105Z 26005KT 24/20 A2985 RMK A01 T02440199  RH  080%=      5-min Rain = 0
KGDS 141110Z 27006KT 24/20 A2985 RMK A01 T02430199  RH  081%=      5-min Rain = 0
KGDS 141115Z 27007KT 25/20 A2986 RMK A01 T02470200  RH  080%=      5-min Rain = 0
KGDS 141120Z 27006KT 25/20 A2986 RMK A01 T02490201  RH  079%=      5-min Rain = 0
KGDS 141125Z 27005KT 25/20 A2986 RMK A01 T02490201  RH  079%=      5-min Rain = 0
KGDS 141130Z 27005KT 25/20 A2986 RMK A01 T02480200  RH  079%=      5-min Rain = 0
KGDS 141135Z 27005KT 25/20 A2986 RMK A01 T02460199  RH  080%=      5-min Rain = 0
KGDS 141140Z 26005KT 24/20 A2986 RMK A01 T02430199  RH  081%=      5-min Rain = 0
KGDS 141145Z 25004KT 24/20 A2986 RMK A01 T02410197  RH  081%=      5-min Rain = 0
KGDS 141150Z 24004KT 24/19 A2986 RMK A01 T02360191  RH  080%=      5-min Rain = 0
KGDS 141155Z 24005KT 23/19 A2986 RMK A01 T02330189  RH  080%=      5-min Rain = 0
KGDS 141200Z 24006KT 23/19 A2986 RMK A01 T02320189  RH  081%=      5-min Rain = 0
KGDS 141205Z 24005KT 23/19 A2987 RMK A01 T02320189  RH  081%=      5-min Rain = 0
KGDS 141210Z 24003KT 23/19 A2987 RMK A01 T02290185  RH  080%=      5-min Rain = 0
KGDS 141215Z 23003KT 23/18 A2987 RMK A01 T02280184  RH  080%=      5-min Rain = 0
KGDS 141220Z 22003KT 23/18 A2987 RMK A01 T02280184  RH  080%=      5-min Rain = 0
KGDS 141225Z 22004KT 23/18 A2988 RMK A01 T02280183  RH  080%=      5-min Rain = 0
KGDS 141230Z 22004KT 23/18 A2988 RMK A01 T02280184  RH  080%=      5-min Rain = 0
KGDS 141235Z 23004KT 23/18 A2988 RMK A01 T02290183  RH  079%=      5-min Rain = 0
KGDS 141240Z 23004KT 23/18 A2988 RMK A01 T02320184  RH  078%=      5-min Rain = 0
KGDS 141245Z 22004KT 23/18 A2988 RMK A01 T02330184  RH  078%=      5-min Rain = 0
KGDS 141250Z 22005KT 24/19 A2988 RMK A01 T02350185  RH  078%=      5-min Rain = 0
KGDS 141255Z 22004KT 24/19 A2988 RMK A01 T02380185  RH  076%=      5-min Rain = 0
KGDS 141300Z 23005KT 24/19 A2988 RMK A01 T02430185  RH  074%=      5-min Rain = 0
KGDS 141305Z 23006KT 25/18 A2988 RMK A01 T02460184  RH  072%=      5-min Rain = 0
KGDS 141310Z 24005KT 25/19 A2988 RMK A01 T02500185  RH  071%=      5-min Rain = 0
KGDS 141315Z 24005KT 25/19 A2989 RMK A01 T02530186  RH  070%=      5-min Rain = 0
KGDS 141320Z 23005KT 26/19 A2989 RMK A01 T02580187  RH  069%=      5-min Rain = 0
KGDS 141325Z 23006KT 26/19 A2989 RMK A01 T02610189  RH  068%=      5-min Rain = 0
KGDS 141330Z 23006KT 26/19 A2989 RMK A01 T02640192  RH  069%=      5-min Rain = 0
KGDS 141335Z 23005KT 27/20 A2989 RMK A01 T02680195  RH  068%=      5-min Rain = 0
KGDS 141340Z 24006KT 27/20 A2989 RMK A01 T02720198  RH  068%=      5-min Rain = 0
KGDS 141345Z 24005KT 27/20 A2989 RMK A01 T02730200  RH  068%=      5-min Rain = 0
KGDS 141350Z 25005KT 28/20 A2989 RMK A01 T02770201  RH  067%=      5-min Rain = 0
KGDS 141355Z 24005KT 28/20 A2989 RMK A01 T02790202  RH  066%=      5-min Rain = 0
KGDS 141400Z 24004KT 28/20 A2989 RMK A01 T02830202  RH  065%=      5-min Rain = 0
KGDS 141405Z 27004KT 29/20 A2989 RMK A01 T02890204  RH  064%=      5-min Rain = 0
KGDS 141410Z 28004KT 29/21 A2989 RMK A01 T02930206  RH  063%=      5-min Rain = 0
KGDS 141415Z 27004KT 29/21 A2989 RMK A01 T02940205  RH  062%=      5-min Rain = 0
KGDS 141420Z 27004KT 30/20 A2989 RMK A01 T02970203  RH  061%=      5-min Rain = 0
KGDS 141425Z 27004KT 30/20 A2989 RMK A01 T03020202  RH  058%=      5-min Rain = 0
KGDS 141430Z 28002KT 31/20 A2989 RMK A01 T03070202  RH  057%=      5-min Rain = 0
KGDS 141435Z 28003KT 31/20 A2989 RMK A01 T03100198  RH  054%=      5-min Rain = 0
KGDS 141440Z 28003KT 31/20 A2989 RMK A01 T03120197  RH  053%=      5-min Rain = 0
KGDS 141445Z 32003KT 31/20 A2989 RMK A01 T03140198  RH  053%=      5-min Rain = 0
KGDS 141450Z 33003KT 32/21 A2989 RMK A01 T03160206  RH  055%=      5-min Rain = 0
KGDS 141455Z 00003KT 32/21 A2989 RMK A01 T03160207  RH  056%=      5-min Rain = 0
KGDS 141500Z 34004KT 32/20 A2989 RMK A01 T03210204  RH  053%=      5-min Rain = 0
KGDS 141505Z 32004KT 32/21 A2989 RMK A01 T03210205  RH  053%=      5-min Rain = 0
KGDS 141510Z 33003KT 32/21 A2989 RMK A01 T03190207  RH  055%=      5-min Rain = 0
KGDS 141515Z 34004KT 32/21 A2989 RMK A01 T03220206  RH  053%=      5-min Rain = 0
KGDS 141520Z 35003KT 32/21 A2989 RMK A01 T03240207  RH  053%=      5-min Rain = 0
KGDS 141525Z 33004KT 33/20 A2989 RMK A01 T03260204  RH  052%=      5-min Rain = 0
KGDS 141530Z 30003KT 33/21 A2989 RMK A01 T03290205  RH  051%=      5-min Rain = 0
KGDS 141535Z 34001KT 33/20 A2989 RMK A01 T03300203  RH  050%=      5-min Rain = 0
KGDS 141540Z 29003KT 34/20 A2989 RMK A01 T03350196  RH  046%=      5-min Rain = 0
KGDS 141545Z 27002KT 34/20 A2989 RMK A01 T03390196  RH  045%=      5-min Rain = 0
KGDS 141550Z 34005KT 34/20 A2989 RMK A01 T03390196  RH  046%=      5-min Rain = 0
KGDS 141555Z 32004KT 34/20 A2989 RMK A01 T03410196  RH  045%=      5-min Rain = 0
KGDS 141600Z 34002G7KT 35/20 A2989 RMK A01 T03460196  RH  044%=      5-min Rain = 0
KGDS 141605Z 30003KT 35/18 A2989 RMK A01 T03460184  RH  041%=      5-min Rain = 0
KGDS 141610Z 34004KT 35/19 A2989 RMK A01 T03480193  RH  043%=      5-min Rain = 0
KGDS 141615Z 31002KT 35/19 A299 RMK A01 T03460191  RH  043%=      5-min Rain = 0
KGDS 141620Z 00002KT 35/19 A2989 RMK A01 T03490185  RH  040%=      5-min Rain = 0
KGDS 141625Z 35005KT 35/19 A2989 RMK A01 T03540189  RH  040%=      5-min Rain = 0
KGDS 141630Z 02002KT 35/19 A299 RMK A01 T03500188  RH  041%=      5-min Rain = 0
KGDS 141635Z 01002KT 36/19 A299 RMK A01 T03560188  RH  040%=      5-min Rain = 0
KGDS 141640Z 33003KT 36/19 A299 RMK A01 T03590187  RH  038%=      5-min Rain = 0
KGDS 141645Z 10003KT 36/19 A299 RMK A01 T03610185  RH  038%=      5-min Rain = 0
KGDS 141650Z 03002G8KT 37/19 A299 RMK A01 T03660186  RH  037%=      5-min Rain = 0
KGDS 141655Z 34004KT 36/18 A299 RMK A01 T03640182  RH  036%=      5-min Rain = 0
KGDS 141700Z 00004KT 37/18 A299 RMK A01 T03680178  RH  035%=      5-min Rain = 0
KGDS 141705Z 34006KT 37/18 A299 RMK A01 T03690175  RH  034%=      5-min Rain = 0
KGDS 141710Z 34004G9KT 37/17 A299 RMK A01 T03680171  RH  033%=      5-min Rain = 0
KGDS 141715Z 00006KT 37/17 A2989 RMK A01 T03730170  RH  032%=      5-min Rain = 0
KGDS 141720Z 36005G10KT 37/17 A2989 RMK A01 T03720166  RH  031%=      5-min Rain = 0
KGDS 141725Z 36005KT 37/17 A2989 RMK A01 T03740167  RH  031%=      5-min Rain = 0
KGDS 141730Z 04003KT 38/17 A2989 RMK A01 T03770168  RH  031%=      5-min Rain = 0
KGDS 141735Z 03005KT 38/17 A2989 RMK A01 T03760172  RH  032%=      5-min Rain = 0
KGDS 141740Z 00003KT 37/17 A2989 RMK A01 T03740171  RH  032%=      5-min Rain = 0
KGDS 141745Z 01002KT 38/17 A2989 RMK A01 T03760172  RH  032%=      5-min Rain = 0
KGDS 141750Z 35003G8KT 38/17 A2989 RMK A01 T03770172  RH  032%=      5-min Rain = 0
KGDS 141755Z 05006KT 38/17 A2989 RMK A01 T03830172  RH  031%=      5-min Rain = 0
KGDS 141800Z 04005G11KT 39/17 A2988 RMK A01 T03860173  RH  030%=      5-min Rain = 0
KGDS 141805Z 04004KT 38/18 A2988 RMK A01 T03840175  RH  031%=      5-min Rain = 0
KGDS 141810Z 08007G12KT 39/18 A2988 RMK A01 T03860176  RH  031%=      5-min Rain = 0
KGDS 141815Z 06007G14KT 38/18 A2988 RMK A01 T03830175  RH  031%=      5-min Rain = 0
KGDS 141820Z 05007KT 39/17 A2988 RMK A01 T03890174  RH  030%=      5-min Rain = 0
KGDS 141825Z 07007KT 39/17 A2988 RMK A01 T03930174  RH  029%=      5-min Rain = 0
KGDS 141830Z 08006G11KT 39/17 A2988 RMK A01 T03890174  RH  030%=      5-min Rain = 0
KGDS 141835Z 05007G12KT 39/17 A2987 RMK A01 T03880174  RH  030%=      5-min Rain = 0
KGDS 141840Z 01007KT 39/17 A2987 RMK A01 T03910172  RH  029%=      5-min Rain = 0
KGDS 141845Z 07006G11KT 39/17 A2987 RMK A01 T03930172  RH  029%=      5-min Rain = 0
KGDS 141850Z 06009KT 40/17 A2987 RMK A01 T03960169  RH  028%=      5-min Rain = 0
KGDS 141855Z 05005KT 40/17 A2987 RMK A01 T03950168  RH  028%=      5-min Rain = 0
KGDS 141900Z 08003G8KT 39/17 A2987 RMK A01 T03920173  RH  029%=      5-min Rain = 0
KGDS 141905Z 08010KT 40/17 A2987 RMK A01 T03970171  RH  028%=      5-min Rain = 0
KGDS 141910Z 10009KT 40/16 A2987 RMK A01 T03970162  RH  027%=      5-min Rain = 0
KGDS 141915Z 11008KT 40/16 A2987 RMK A01 T04010158  RH  025%=      5-min Rain = 0
KGDS 141920Z 11005KT 40/16 A2986 RMK A01 T04000157  RH  025%=      5-min Rain = 0
KGDS 141925Z 14002KT 40/16 A2986 RMK A01 T03990164  RH  027%=      5-min Rain = 0
KGDS 141930Z 12007G13KT 40/16 A2986 RMK A01 T04040164  RH  026%=      5-min Rain = 0
KGDS 141935Z 13008KT 41/16 A2985 RMK A01 T04080162  RH  025%=      5-min Rain = 0
KGDS 141940Z 12007G16KT 41/16 A2985 RMK A01 T04060163  RH  025%=      5-min Rain = 0
KGDS 141945Z 09007G15KT 41/17 A2985 RMK A01 T04070171  RH  027%=      5-min Rain = 0
KGDS 141950Z 07004G12KT 40/17 A2985 RMK A01 T04020169  RH  027%=      5-min Rain = 0
KGDS 141955Z 10006G12KT 41/16 A2985 RMK A01 T04070164  RH  025%=      5-min Rain = 0
KGDS 142000Z 12007G12KT 41/16 A2985 RMK A01 T04110162  RH  025%=      5-min Rain = 0
KGDS 142005Z 12007KT 41/15 A2984 RMK A01 T04130151  RH  023%=      5-min Rain = 0
KGDS 142010Z 12005KT 42/16 A2984 RMK A01 T04160158  RH  023%=      5-min Rain = 0
KGDS 142015Z 12008KT 42/17 A2984 RMK A01 T04150167  RH  025%=      5-min Rain = 0
KGDS 142020Z 08011G17KT 41/17 A2983 RMK A01 T04110171  RH  026%=      5-min Rain = 0
KGDS 142025Z 09009G15KT 41/17 A2983 RMK A01 T04120170  RH  026%=      5-min Rain = 0
KGDS 142030Z 10007G14KT 41/17 A2983 RMK A01 T04070170  RH  027%=      5-min Rain = 0
KGDS 142035Z 07009G15KT 41/17 A2983 RMK A01 T04090172  RH  027%=      5-min Rain = 0
KGDS 142040Z 10010G16KT 41/17 A2983 RMK A01 T04070172  RH  027%=      5-min Rain = 0
KGDS 142045Z 07009G16KT 41/17 A2983 RMK A01 T04110171  RH  026%=      5-min Rain = 0
KGDS 142050Z 09009G15KT 41/17 A2983 RMK A01 T04130168  RH  026%=      5-min Rain = 0
KGDS 142055Z 08009G15KT 41/17 A2982 RMK A01 T04090167  RH  026%=      5-min Rain = 0
KGDS 142100Z 07008KT 41/17 A2982 RMK A01 T04090167  RH  026%=      5-min Rain = 0
KGDS 142105Z 07011G17KT 41/16 A2982 RMK A01 T04060164  RH  026%=      5-min Rain = 0
KGDS 142110Z 08009G15KT 41/16 A2983 RMK A01 T04050162  RH  025%=      5-min Rain = 0
KGDS 142115Z 05007G13KT 40/16 A2982 RMK A01 T04030161  RH  026%=      5-min Rain = 0
KGDS 142120Z 07009G15KT 40/16 A2982 RMK A01 T04040159  RH  025%=      5-min Rain = 0
KGDS 142125Z 08008G14KT 40/16 A2982 RMK A01 T04030155  RH  025%=      5-min Rain = 0
KGDS 142130Z 07010G15KT 40/15 A2982 RMK A01 T04030150  RH  024%=      5-min Rain = 0
KGDS 142135Z 06010G16KT 40/14 A2981 RMK A01 T04040143  RH  023%=      5-min Rain = 0
KGDS 142140Z 06009KT 40/14 A2981 RMK A01 T04040139  RH  022%=      5-min Rain = 0
KGDS 142145Z 07011KT 41/14 A2981 RMK A01 T04060142  RH  022%=      5-min Rain = 0
KGDS 142150Z 06012KT 40/14 A2981 RMK A01 T04030143  RH  023%=      5-min Rain = 0
KGDS 142155Z 05012KT 40/14 A298 RMK A01 T04020141  RH  022%=      5-min Rain = 0
KGDS 142200Z 05011KT 40/14 A2981 RMK A01 T04010141  RH  023%=      5-min Rain = 0
KGDS 142205Z 06012KT 40/14 A298 RMK A01 T04020141  RH  023%=      5-min Rain = 0
KGDS 142210Z 07011G16KT 40/14 A2981 RMK A01 T04020141  RH  022%=      5-min Rain = 0
KGDS 142215Z 06011KT 40/14 A2981 RMK A01 T04000140  RH  023%=      5-min Rain = 0
KGDS 142220Z 07011KT 40/14 A298 RMK A01 T04000137  RH  022%=      5-min Rain = 0
KGDS 142225Z 07011KT 40/13 A298 RMK A01 T03990131  RH  021%=      5-min Rain = 0
KGDS 142230Z 07012KT 40/13 A298 RMK A01 T03990129  RH  021%=      5-min Rain = 0
KGDS 142235Z 06013KT 40/13 A2981 RMK A01 T03980128  RH  021%=      5-min Rain = 0
KGDS 142240Z 07013KT 40/13 A2981 RMK A01 T03950133  RH  022%=      5-min Rain = 0
KGDS 142245Z 06011KT 40/13 A2981 RMK A01 T03950131  RH  022%=      5-min Rain = 0
KGDS 142250Z 06011KT 39/13 A2981 RMK A01 T03940129  RH  022%=      5-min Rain = 0
KGDS 142255Z 06011KT 39/13 A2981 RMK A01 T03930129  RH  022%=      5-min Rain = 0
KGDS 142300Z 07011KT 39/13 A2981 RMK A01 T03910127  RH  022%=      5-min Rain = 0
KGDS 142305Z 07009KT 39/12 A2981 RMK A01 T03900124  RH  021%=      5-min Rain = 0
KGDS 142310Z 08010KT 39/12 A2981 RMK A01 T03890122  RH  021%=      5-min Rain = 0
KGDS 142315Z 08010KT 39/12 A2981 RMK A01 T03880123  RH  021%=      5-min Rain = 0
KGDS 142320Z 08010KT 39/13 A298 RMK A01 T03870126  RH  022%=      5-min Rain = 0
KGDS 142325Z 08011KT 39/13 A298 RMK A01 T03860128  RH  022%=      5-min Rain = 0
KGDS 142330Z 08011KT 38/13 A298 RMK A01 T03840132  RH  023%=      5-min Rain = 0
KGDS 142335Z 08010KT 38/14 A298 RMK A01 T03830135  RH  024%=      5-min Rain = 0
KGDS 142340Z 08010KT 38/14 A298 RMK A01 T03830136  RH  024%=      5-min Rain = 0
KGDS 142345Z 08009KT 38/14 A298 RMK A01 T03820138  RH  025%=      5-min Rain = 0
KGDS 142350Z 08009KT 38/14 A2981 RMK A01 T03800139  RH  025%=      5-min Rain = 0
KGDS 142355Z 07008KT 38/14 A2981 RMK A01 T03790139  RH  025%=      5-min Rain = 0
KGDS 150000Z 07008KT 38/14 A2981 RMK A01 T03780138  RH  025%=      5-min Rain = 0
KGDS 150005Z 06007KT 38/14 A2981 RMK A01 T03780138  RH  025%=      5-min Rain = 0
KGDS 150010Z 08005KT 38/14 A2982 RMK A01 T03770139  RH  025%=      5-min Rain = 0
KGDS 150015Z 19011G20KT 38/14 A2984 RMK A01 T03760139  RH  025%=      5-min Rain = 0
KGDS 150020Z 24014G21KT 37/14 A2984 RMK A01 T03710137  RH  026%=      5-min Rain = 0
KGDS 150025Z 23008G17KT 38/14 A2983 RMK A01 T03780136  RH  025%=      5-min Rain = 0
KGDS 150030Z 21009G20KT 38/14 A2983 RMK A01 T03800136  RH  025%=      5-min Rain = 0
KGDS 150035Z 22009G16KT 37/13 A2984 RMK A01 T03710134  RH  025%=      5-min Rain = 0
KGDS 150040Z 22006KT 37/13 A2984 RMK A01 T03660133  RH  026%=      5-min Rain = 0
KGDS 150045Z 21006G12KT 36/13 A2984 RMK A01 T03620131  RH  026%=      5-min Rain = 0
KGDS 150050Z 22011KT 36/13 A2984 RMK A01 T03560131  RH  027%=      5-min Rain = 0
KGDS 150055Z 22009KT 35/13 A2984 RMK A01 T03520131  RH  028%=      5-min Rain = 0
KGDS 150100Z 23008KT 35/13 A2984 RMK A01 T03490131  RH  028%=      5-min Rain = 0
KGDS 150105Z 22009KT 35/13 A2984 RMK A01 T03470132  RH  028%=      5-min Rain = 0
KGDS 150110Z 23007KT 35/13 A2985 RMK A01 T03450132  RH  029%=      5-min Rain = 0
KGDS 150115Z 24007KT 34/13 A2985 RMK A01 T03420133  RH  030%=      5-min Rain = 0
KGDS 150120Z 23007KT 34/13 A2985 RMK A01 T03410133  RH  030%=      5-min Rain = 0
KGDS 150125Z 23007KT 34/14 A2986 RMK A01 T03390135  RH  030%=      5-min Rain = 0
KGDS 150130Z 25005KT 34/14 A2986 RMK A01 T03370136  RH  031%=      5-min Rain = 0
KGDS 150135Z 25004KT 34/14 A2986 RMK A01 T03360137  RH  031%=      5-min Rain = 0
KGDS 150140Z 26006KT 34/14 A2986 RMK A01 T03360137  RH  031%=      5-min Rain = 0
KGDS 150145Z 26006KT 34/14 A2986 RMK A01 T03360136  RH  031%=      5-min Rain = 0
KGDS 150150Z 26007KT 34/14 A2985 RMK A01 T03360136  RH  031%=      5-min Rain = 0
KGDS 150155Z 26007KT 34/14 A2985 RMK A01 T03370137  RH  031%=      5-min Rain = 0
KGDS 150200Z 26006KT 34/14 A2986 RMK A01 T03360136  RH  031%=      5-min Rain = 0
KGDS 150205Z 27006KT 33/14 A2986 RMK A01 T03340135  RH  031%=      5-min Rain = 0
KGDS 150210Z 28005KT 33/14 A2986 RMK A01 T03320135  RH  032%=      5-min Rain = 0
KGDS 150215Z 29005KT 33/14 A2986 RMK A01 T03290135  RH  032%=      5-min Rain = 0
KGDS 150220Z 30005KT 33/13 A2986 RMK A01 T03270133  RH  032%=      5-min Rain = 0
KGDS 150225Z 30004KT 33/13 A2985 RMK A01 T03270131  RH  032%=      5-min Rain = 0
KGDS 150230Z 30006KT 33/13 A2986 RMK A01 T03270131  RH  032%=      5-min Rain = 0
KGDS 150235Z 30004KT 33/13 A2986 RMK A01 T03260131  RH  032%=      5-min Rain = 0
KGDS 150240Z 31003KT 33/13 A2986 RMK A01 T03250131  RH  032%=      5-min Rain = 0
KGDS 150245Z 32004KT 32/13 A2987 RMK A01 T03240132  RH  032%=      5-min Rain = 0
KGDS 150250Z 35003KT 32/13 A2987 RMK A01 T03220132  RH  033%=      5-min Rain = 0
KGDS 150255Z 34004KT 32/13 A2988 RMK A01 T03190133  RH  033%=      5-min Rain = 0
KGDS 150300Z 33003KT 32/13 A2988 RMK A01 T03230132  RH  033%=      5-min Rain = 0
KGDS 150305Z 34003KT 32/13 A2988 RMK A01 T03220131  RH  033%=      5-min Rain = 0
KGDS 150310Z 01002KT 32/13 A2988 RMK A01 T03170132  RH  034%=      5-min Rain = 0
KGDS 150315Z 03003KT 32/13 A2988 RMK A01 T03170131  RH  033%=      5-min Rain = 0
KGDS 150320Z 00004KT 32/13 A2988 RMK A01 T03150131  RH  034%=      5-min Rain = 0
KGDS 150325Z 35006KT 31/13 A2988 RMK A01 T03070132  RH  036%=      5-min Rain = 0
KGDS 150330Z 36006KT 30/13 A2988 RMK A01 T03040131  RH  036%=      5-min Rain = 0
KGDS 150335Z 34008KT 31/13 A2988 RMK A01 T03060130  RH  036%=      5-min Rain = 0
KGDS 150340Z 34007KT 31/13 A2988 RMK A01 T03050130  RH  036%=      5-min Rain = 0
KGDS 150345Z 34008KT 30/13 A2988 RMK A01 T03020130  RH  036%=      5-min Rain = 0
KGDS 150350Z 34008KT 30/13 A2989 RMK A01 T03030129  RH  036%=      5-min Rain = 0
KGDS 150355Z 35007KT 30/13 A2989 RMK A01 T03040129  RH  036%=      5-min Rain = 0
KGDS 150400Z 35008KT 31/13 A2989 RMK A01 T03050127  RH  035%=      5-min Rain = 0
KGDS 150405Z 34008KT 31/13 A2989 RMK A01 T03060126  RH  034%=      5-min Rain = 0
KGDS 150410Z 33008KT 31/13 A299 RMK A01 T03070125  RH  034%=      5-min Rain = 0
KGDS 150415Z 34008KT 31/12 A299 RMK A01 T03050124  RH  034%=      5-min Rain = 0
KGDS 150420Z 34008KT 30/12 A299 RMK A01 T03030124  RH  035%=      5-min Rain = 0
KGDS 150425Z 34008KT 30/12 A299 RMK A01 T03020123  RH  034%=      5-min Rain = 0
KGDS 150430Z 33007KT 30/12 A299 RMK A01 T03010123  RH  035%=      5-min Rain = 0
KGDS 150435Z 34007KT 30/12 A299 RMK A01 T03000123  RH  035%=      5-min Rain = 0
KGDS 150440Z 34008KT 30/13 A2991 RMK A01 T02980125  RH  036%=      5-min Rain = 0
KGDS 150445Z 35007KT 30/13 A2991 RMK A01 T02970127  RH  037%=      5-min Rain = 0
KGDS 150450Z 35006KT 29/13 A2991 RMK A01 T02920131  RH  039%=      5-min Rain = 0
KGDS 150455Z 00005KT 29/14 A2991 RMK A01 T02900135  RH  040%=      5-min Rain = 0

Page generated in 0.0154 seconds.